createdAt,value
2019-05-16T00:01:38.412Z,11.58
2019-05-16T00:06:45.220Z,11.60
2019-05-16T00:11:51.156Z,11.66
2019-05-16T00:16:58.908Z,11.70
2019-05-16T00:22:04.885Z,11.74
2019-05-16T00:27:10.846Z,11.81
2019-05-16T00:32:18.949Z,11.80
2019-05-16T00:37:24.650Z,11.86
2019-05-16T00:42:30.497Z,11.93
2019-05-16T00:47:38.685Z,11.97
2019-05-16T00:52:44.144Z,12.00
2019-05-16T00:57:52.203Z,11.96
2019-05-16T01:02:58.068Z,11.88
2019-05-16T01:08:04.153Z,11.80
2019-05-16T01:13:10.499Z,11.81
2019-05-16T01:18:18.751Z,11.81
2019-05-16T01:23:23.360Z,11.90
2019-05-16T01:28:29.357Z,11.98
2019-05-16T01:33:35.636Z,12.02
2019-05-16T01:38:42.017Z,12.18
2019-05-16T01:43:48.499Z,12.24
2019-05-16T01:48:54.573Z,12.34
2019-05-16T01:54:00.543Z,12.38
2019-05-16T01:59:08.678Z,12.43
2019-05-16T02:04:14.230Z,12.46
2019-05-16T02:09:20.135Z,12.45
2019-05-16T02:14:28.203Z,12.49
2019-05-16T02:19:33.675Z,12.45
2019-05-16T02:24:39.647Z,12.52
2019-05-16T02:29:45.516Z,12.43
2019-05-16T02:34:51.531Z,12.51
2019-05-16T02:40:00.982Z,12.51
2019-05-16T02:45:06.972Z,12.59
2019-05-16T02:50:13.597Z,12.74
2019-05-16T02:55:21.660Z,12.68
2019-05-16T03:00:41.956Z,12.69
2019-05-16T03:05:45.132Z,12.59
2019-05-16T03:10:52.389Z,12.51
2019-05-16T03:16:02.358Z,12.44
2019-05-16T03:21:12.156Z,12.37
2019-05-16T03:26:21.053Z,12.24
2019-05-16T03:31:27.593Z,11.80
2019-05-16T03:36:34.685Z,12.04
2019-05-16T03:41:41.551Z,12.14
2019-05-16T03:46:47.852Z,12.16
2019-05-16T03:51:53.717Z,12.28
2019-05-16T03:57:00.549Z,12.25
2019-05-16T04:02:06.679Z,12.25
2019-05-16T04:07:12.552Z,12.21
2019-05-16T04:12:21.125Z,12.19
2019-05-16T04:17:27.055Z,12.17
2019-05-16T04:22:33.027Z,12.16
2019-05-16T04:27:41.644Z,12.10
2019-05-16T04:32:46.814Z,12.04
2019-05-16T04:37:53.219Z,12.06
2019-05-16T04:43:01.227Z,12.04
2019-05-16T04:48:06.886Z,11.97
2019-05-16T04:53:12.980Z,11.92
2019-05-16T04:58:23.369Z,11.89
2019-05-16T05:03:26.734Z,12.01
2019-05-16T05:08:49.008Z,12.06
2019-05-16T05:13:41.308Z,12.09
2019-05-16T05:18:47.725Z,12.06
2019-05-16T05:23:53.726Z,12.06
2019-05-16T05:28:59.966Z,12.09
2019-05-16T05:34:06.044Z,12.09
2019-05-16T05:39:15.484Z,12.13
2019-05-16T05:44:20.437Z,12.06
2019-05-16T05:49:26.651Z,12.09
2019-05-16T05:54:32.489Z,12.14
2019-05-16T05:59:40.476Z,12.24
2019-05-16T06:04:46.125Z,12.30
2019-05-16T06:09:56.299Z,12.28
2019-05-16T06:15:07.789Z,12.17
2019-05-16T06:20:14.035Z,12.23
2019-05-16T06:25:15.684Z,12.26
2019-05-16T06:30:21.999Z,12.33
2019-05-16T06:35:29.931Z,12.45
2019-05-16T06:40:35.950Z,12.57
2019-05-16T06:45:41.921Z,12.66
2019-05-16T06:50:48.494Z,12.76
2019-05-16T06:55:55.603Z,12.87
2019-05-16T07:01:03.601Z,13.03
2019-05-16T07:06:11.025Z,13.07
2019-05-16T07:11:16.118Z,13.18
2019-05-16T07:16:22.205Z,13.10
2019-05-16T07:21:31.075Z,13.02
2019-05-16T07:26:36.239Z,13.08
2019-05-16T07:31:42.139Z,13.13
2019-05-16T07:36:50.244Z,13.16
2019-05-16T07:41:56.848Z,13.16
2019-05-16T07:47:03.006Z,13.14
2019-05-16T07:52:09.939Z,13.08
2019-05-16T07:57:20.471Z,13.14
2019-05-16T08:02:23.030Z,13.14
2019-05-16T08:07:30.705Z,13.08
2019-05-16T08:12:40.435Z,12.99
2019-05-16T08:17:45.578Z,12.98
2019-05-16T08:22:51.895Z,12.98
2019-05-16T08:28:01.177Z,13.22
2019-05-16T08:33:06.565Z,13.34
2019-05-16T08:38:13.580Z,13.34
2019-05-16T08:48:27.960Z,13.50
2019-05-16T08:53:33.925Z,13.60
2019-05-16T08:58:41.127Z,13.69
2019-05-16T09:03:47.258Z,13.82
2019-05-16T09:08:53.274Z,13.93
2019-05-16T09:10:34.643Z,13.39
2019-05-16T09:13:59.258Z,14.08
2019-05-16T09:19:07.677Z,14.23
2019-05-16T09:24:13.063Z,14.67
2019-05-16T09:29:19.007Z,15.02
2019-05-16T09:34:28.122Z,15.40
2019-05-16T09:39:32.792Z,15.70
2019-05-16T09:44:38.782Z,15.81
2019-05-16T09:49:47.326Z,15.74
2019-05-16T09:54:52.333Z,15.60
2019-05-16T09:59:58.273Z,15.22
2019-05-16T10:05:12.409Z,15.05
2019-05-16T10:10:13.573Z,14.95
2019-05-16T10:15:20.223Z,14.83
2019-05-16T10:20:27.385Z,14.70
2019-05-16T10:25:33.589Z,14.57
2019-05-16T10:30:39.602Z,14.18
2019-05-16T10:35:48.022Z,14.17
2019-05-16T10:40:53.937Z,14.10
2019-05-16T10:46:00.279Z,14.23
2019-05-16T10:51:07.780Z,14.29
2019-05-16T10:56:14.047Z,14.39
2019-05-16T11:01:27.483Z,14.51
2019-05-16T11:06:29.437Z,14.44
2019-05-16T11:11:36.775Z,14.35
2019-05-16T11:16:43.025Z,14.16
2019-05-16T11:21:48.862Z,14.15
2019-05-16T11:26:56.766Z,14.30
2019-05-16T11:32:02.889Z,14.26
2019-05-16T11:37:08.853Z,14.29
2019-05-16T11:42:17.326Z,14.32
2019-05-16T11:47:22.542Z,14.24
2019-05-16T11:52:28.756Z,14.14
2019-05-16T11:57:34.892Z,14.18
2019-05-16T12:02:42.787Z,14.25
2019-05-16T12:07:48.902Z,14.35
2019-05-16T12:12:56.829Z,14.25
2019-05-16T12:18:05.194Z,14.28
2019-05-16T12:23:11.831Z,14.37
2019-05-16T12:28:17.810Z,14.36
2019-05-16T12:33:27.414Z,14.38
2019-05-16T12:38:31.762Z,14.40
2019-05-16T12:43:49.034Z,14.60
2019-05-16T12:48:47.362Z,14.45
2019-05-16T12:53:53.376Z,14.44
2019-05-16T12:58:59.341Z,14.46
2019-05-16T13:04:05.531Z,14.58
2019-05-16T13:09:11.756Z,14.63
2019-05-16T13:14:17.872Z,14.74
2019-05-16T13:19:23.965Z,15.06
2019-05-16T13:24:30.019Z,15.23
2019-05-16T13:29:37.078Z,15.48
2019-05-16T13:34:43.810Z,15.57
2019-05-16T13:39:50.081Z,15.64
2019-05-16T13:44:57.850Z,15.59
2019-05-16T13:50:11.644Z,15.72
2019-05-16T13:55:13.525Z,15.58
2019-05-16T14:00:21.038Z,15.47
2019-05-16T14:05:27.105Z,15.50
2019-05-16T14:10:33.405Z,15.56
2019-05-16T14:15:39.559Z,15.56
2019-05-16T14:20:46.636Z,15.58
2019-05-16T14:25:52.881Z,15.55
2019-05-16T14:30:58.805Z,15.56
2019-05-16T14:36:07.092Z,15.54
2019-05-16T14:41:12.997Z,15.57
2019-05-16T14:46:19.291Z,15.52
2019-05-16T14:51:28.190Z,15.66
2019-05-16T14:56:33.163Z,15.82
2019-05-16T15:01:39.136Z,15.91
2019-05-16T15:06:46.987Z,16.04
2019-05-16T15:11:52.824Z,16.13
2019-05-16T15:16:59.214Z,16.28
2019-05-16T15:22:07.886Z,16.53
2019-05-16T15:27:16.987Z,16.64
2019-05-16T15:32:23.155Z,16.61
2019-05-16T15:37:29.046Z,16.59
2019-05-16T15:42:37.299Z,16.78
2019-05-16T15:47:42.846Z,16.74
2019-05-16T15:52:48.991Z,16.83
2019-05-16T15:57:55.063Z,17.07
2019-05-16T16:03:01.143Z,17.19
2019-05-16T16:08:07.414Z,17.07
2019-05-16T16:13:13.811Z,17.16
2019-05-16T16:18:21.916Z,17.18
2019-05-16T16:23:27.807Z,17.02
2019-05-16T16:28:34.066Z,16.96
2019-05-16T16:33:40.249Z,16.89
2019-05-16T16:38:47.636Z,16.89
2019-05-16T16:43:53.920Z,16.89
2019-05-16T16:48:59.987Z,16.84
2019-05-16T16:54:07.637Z,16.90
2019-05-16T16:59:13.773Z,16.94
2019-05-16T17:04:20.050Z,16.96
2019-05-16T17:09:27.012Z,16.88
2019-05-16T17:14:33.429Z,16.96
2019-05-16T17:19:39.802Z,17.03
2019-05-16T17:24:47.282Z,16.97
2019-05-16T17:29:56.777Z,17.03
2019-05-16T17:35:02.431Z,17.26
2019-05-16T17:40:10.623Z,17.28
2019-05-16T17:45:18.236Z,17.14
2019-05-16T17:50:26.328Z,16.97
2019-05-16T17:55:32.372Z,16.87
2019-05-16T18:00:38.554Z,16.73
2019-05-16T18:05:47.235Z,16.58
2019-05-16T18:10:52.524Z,16.65
2019-05-16T18:15:58.514Z,16.73
2019-05-16T18:21:06.676Z,16.52
2019-05-16T18:26:12.276Z,16.61
2019-05-16T18:31:18.661Z,16.35
2019-05-16T18:36:26.473Z,16.06
2019-05-16T18:41:32.345Z,15.82
2019-05-16T18:46:38.448Z,15.62
2019-05-16T18:51:46.358Z,15.54
2019-05-16T18:56:52.199Z,15.47
2019-05-16T19:01:58.218Z,15.50
2019-05-16T19:07:04.371Z,15.41
2019-05-16T19:12:10.322Z,15.40
2019-05-16T19:17:22.162Z,15.48
2019-05-16T19:22:26.329Z,15.53
2019-05-16T19:27:31.019Z,15.47
2019-05-16T19:32:39.502Z,15.37
2019-05-16T19:37:46.957Z,15.35
2019-05-16T19:42:52.809Z,15.42
2019-05-16T19:47:58.846Z,15.44
2019-05-16T19:53:07.327Z,15.51
2019-05-16T19:58:12.772Z,15.48
2019-05-16T20:03:18.815Z,15.44
2019-05-16T20:08:26.972Z,15.28
2019-05-16T20:13:32.921Z,15.19
2019-05-16T20:18:39.303Z,15.20
2019-05-16T20:23:47.298Z,15.20
2019-05-16T20:28:52.894Z,15.20
2019-05-16T20:33:58.855Z,15.18
2019-05-16T20:39:09.042Z,15.37
2019-05-16T20:44:17.218Z,15.18
2019-05-16T20:49:22.602Z,15.07
2019-05-16T20:54:28.473Z,15.06
2019-05-16T20:59:34.749Z,14.95
2019-05-16T21:04:40.823Z,14.94
2019-05-16T21:09:46.794Z,14.80
2019-05-16T21:14:52.805Z,14.74
2019-05-16T21:19:58.735Z,14.74
2019-05-16T21:25:05.114Z,14.72
2019-05-16T21:30:11.700Z,14.59
2019-05-16T21:35:19.309Z,14.53
2019-05-16T21:40:26.544Z,14.54
2019-05-16T21:45:32.893Z,14.61
2019-05-16T21:50:38.861Z,14.60
2019-05-16T21:55:47.042Z,14.65
2019-05-16T22:00:56.705Z,14.65
2019-05-16T22:06:04.451Z,14.59
2019-05-16T22:11:11.966Z,14.55
2019-05-16T22:16:18.136Z,14.39
2019-05-16T22:21:24.028Z,14.39
2019-05-16T22:26:29.975Z,14.38
2019-05-16T22:31:36.662Z,14.38
2019-05-16T22:36:42.635Z,14.47
2019-05-16T22:41:48.602Z,14.53
2019-05-16T22:46:54.578Z,14.49
2019-05-16T22:52:00.446Z,14.43
2019-05-16T22:57:06.783Z,14.39
2019-05-16T23:02:13.028Z,14.39
2019-05-16T23:07:19.177Z,14.33
2019-05-16T23:12:26.628Z,14.25
2019-05-16T23:17:32.757Z,14.23
2019-05-16T23:22:38.954Z,14.18
2019-05-16T23:27:47.215Z,14.14
2019-05-16T23:32:52.514Z,14.18
2019-05-16T23:37:58.436Z,14.22
2019-05-16T23:43:04.359Z,14.23
2019-05-16T23:48:11.385Z,14.31
2019-05-16T23:53:17.728Z,14.34
2019-05-16T23:58:24.929Z,14.36
